createdAt,value
2023-01-18T05:04:36.570Z,96305.28
2023-01-18T05:08:48.457Z,96316.69
2023-01-18T05:17:39.243Z,96322.28
2023-01-18T05:21:50.694Z,96338.19
2023-01-18T05:26:04.659Z,96346.53
2023-01-18T05:30:16.304Z,96361.00
2023-01-18T05:34:28.604Z,96366.78
2023-01-18T05:38:40.073Z,96372.06
2023-01-18T05:42:51.568Z,96375.13
2023-01-18T05:47:03.240Z,96382.66
2023-01-18T05:51:14.689Z,96387.31
2023-01-18T05:55:27.237Z,96390.53
2023-01-18T05:59:38.892Z,96398.88
2023-01-18T06:03:50.373Z,96399.50
2023-01-18T06:08:02.674Z,96410.91
2023-01-18T06:12:14.243Z,96422.13
2023-01-18T06:16:25.770Z,96428.38
2023-01-18T06:20:37.358Z,96439.94
2023-01-18T06:24:48.825Z,96445.53
2023-01-18T06:29:00.327Z,96458.84
2023-01-18T06:33:11.853Z,96466.03
2023-01-18T06:37:23.329Z,96472.63
2023-01-18T06:41:34.859Z,96486.88
2023-01-18T06:45:52.526Z,96491.81
2023-01-18T06:50:04.344Z,96502.72
2023-01-18T06:54:16.666Z,96515.03
2023-01-18T06:58:30.000Z,96521.59
2023-01-18T07:02:41.482Z,96528.66
2023-01-18T07:06:53.731Z,96530.06
2023-01-18T07:11:07.943Z,96541.47
2023-01-18T07:15:22.189Z,96550.13
2023-01-18T07:19:34.889Z,96548.16
2023-01-18T07:23:46.382Z,96561.66
2023-01-18T07:27:57.916Z,96565.47
2023-01-18T07:32:09.416Z,96571.72
2023-01-18T07:36:22.236Z,96582.47
2023-01-18T07:40:34.005Z,96595.72
2023-01-18T07:44:45.455Z,96601.88
2023-01-18T07:48:58.351Z,96608.13
2023-01-18T07:53:09.878Z,96607.81
2023-01-18T07:57:21.452Z,96621.59
2023-01-18T08:01:33.015Z,96635.06
2023-01-18T08:05:45.476Z,96645.50
2023-01-18T08:09:58.013Z,96644.72
2023-01-18T08:14:09.571Z,96662.78
2023-01-18T08:18:21.416Z,96671.59
2023-01-18T08:22:32.854Z,96682.72
2023-01-18T08:26:44.287Z,96686.31
2023-01-18T08:31:12.378Z,96694.19
2023-01-18T08:35:25.877Z,96693.28
2023-01-18T08:39:38.381Z,96703.75
2023-01-18T08:43:50.981Z,96708.09
2023-01-18T08:48:09.339Z,96718.91
2023-01-18T08:52:20.925Z,96724.41
2023-01-18T08:56:32.399Z,96729.41
2023-01-18T09:00:45.614Z,96733.75
2023-01-18T09:04:58.135Z,96747.44
2023-01-18T09:09:11.450Z,96757.09
2023-01-18T09:13:22.940Z,96760.50
2023-01-18T09:17:34.466Z,96770.16
2023-01-18T09:21:46.509Z,96773.38
2023-01-18T09:26:10.339Z,96778.09
2023-01-18T09:30:21.948Z,96787.13
2023-01-18T09:34:34.654Z,96787.59
2023-01-18T09:38:46.666Z,96797.75
2023-01-18T09:42:58.508Z,96804.38
2023-01-18T09:47:22.191Z,96817.06
2023-01-18T09:51:49.758Z,96821.25
2023-01-18T09:56:18.613Z,96831.09
2023-01-18T10:00:33.605Z,96830.44
2023-01-18T10:04:49.636Z,96831.41
2023-01-18T10:09:07.015Z,96837.81
2023-01-18T10:13:50.912Z,96848.78
2023-01-18T10:18:02.494Z,96851.03
2023-01-18T10:22:46.873Z,96848.44
2023-01-18T10:27:10.820Z,96859.53
2023-01-18T10:31:48.059Z,96865.00
2023-01-18T10:36:16.632Z,96866.47
2023-01-18T10:40:28.156Z,96861.91
2023-01-18T10:44:40.211Z,96865.34
2023-01-18T10:48:54.370Z,96869.34
2023-01-18T10:53:27.338Z,96870.94
2023-01-18T10:57:52.086Z,96872.88
2023-01-18T11:02:05.004Z,96883.66
2023-01-18T11:06:19.190Z,96882.78
2023-01-18T11:10:38.028Z,96879.16
2023-01-18T11:14:49.509Z,96878.16
2023-01-18T11:19:15.882Z,96883.84
2023-01-18T11:23:36.192Z,96885.72
2023-01-18T11:27:49.284Z,96889.69
2023-01-18T11:32:03.670Z,96897.19
2023-01-18T11:36:15.914Z,96899.78
2023-01-18T11:40:29.711Z,96898.88
2023-01-18T11:45:04.985Z,96905.78
2023-01-18T11:49:28.780Z,96891.25
2023-01-18T11:54:11.225Z,96895.38
2023-01-18T11:58:26.803Z,96897.19
2023-01-18T12:02:57.804Z,96904.81
2023-01-18T12:07:18.060Z,96911.25
2023-01-18T12:11:46.724Z,96909.13
2023-01-18T12:16:28.164Z,96917.97
2023-01-18T12:21:07.499Z,96912.16
2023-01-18T12:26:12.276Z,96921.66
2023-01-18T12:30:51.459Z,96927.81
2023-01-18T12:35:30.236Z,96937.84
2023-01-18T12:39:56.949Z,96930.84
2023-01-18T12:44:29.924Z,96940.03
2023-01-18T12:48:41.341Z,96942.56
2023-01-18T12:52:58.553Z,96941.41
2023-01-18T12:57:11.377Z,96956.06
2023-01-18T13:01:27.114Z,96952.91
2023-01-18T13:05:54.092Z,96955.53
2023-01-18T13:10:13.671Z,96965.06
2023-01-18T13:14:33.388Z,96962.75
2023-01-18T13:19:03.923Z,96967.06
2023-01-18T13:23:39.771Z,96970.41
2023-01-18T13:28:02.683Z,96976.88
2023-01-18T13:32:29.156Z,96981.28
2023-01-18T13:36:45.607Z,96997.34
2023-01-18T13:41:03.881Z,97001.53
2023-01-18T13:45:26.001Z,97002.63
2023-01-18T13:49:46.294Z,97011.47
2023-01-18T13:53:57.770Z,97027.31
2023-01-18T13:58:27.584Z,97027.53
2023-01-18T14:02:42.312Z,97032.41
2023-01-18T14:06:57.365Z,97041.56
2023-01-18T14:11:20.796Z,97050.81
2023-01-18T14:15:53.357Z,97051.69
2023-01-18T14:20:34.944Z,97049.28
2023-01-18T14:25:23.885Z,97049.28
2023-01-18T14:29:46.201Z,97062.94
2023-01-18T14:33:57.743Z,97068.75
2023-01-18T14:38:18.851Z,97069.75
2023-01-18T14:42:34.778Z,97084.75
2023-01-18T14:46:55.988Z,97089.41
2023-01-18T14:51:07.532Z,97091.34
2023-01-18T14:55:30.906Z,97094.41
2023-01-18T14:59:54.036Z,97103.41
2023-01-18T15:04:26.199Z,97099.88
2023-01-18T15:08:39.350Z,97105.88
2023-01-18T15:12:56.324Z,97125.84
2023-01-18T15:17:11.518Z,97130.63
2023-01-18T15:21:28.113Z,97136.16
2023-01-18T15:25:40.253Z,97141.66
2023-01-18T15:29:54.465Z,97142.63
2023-01-18T15:34:13.253Z,97149.41
2023-01-18T15:38:25.004Z,97153.56
2023-01-18T15:42:55.123Z,97164.16
2023-01-18T15:47:15.657Z,97162.50
2023-01-18T15:51:45.846Z,97175.47
2023-01-18T15:56:03.324Z,97181.38
2023-01-18T16:00:30.816Z,97194.38
2023-01-18T16:04:42.368Z,97195.44
2023-01-18T16:09:16.009Z,97195.81
2023-01-18T16:13:37.093Z,97218.22
2023-01-18T16:17:48.620Z,97219.72
2023-01-18T16:22:06.607Z,97217.22
2023-01-18T16:26:23.138Z,97234.72
2023-01-18T16:30:38.168Z,97241.56
2023-01-18T16:34:49.961Z,97242.72
2023-01-18T16:39:05.278Z,97246.34
2023-01-18T16:43:29.738Z,97255.22
2023-01-18T16:47:41.260Z,97260.66
2023-01-18T16:51:52.836Z,97269.03
2023-01-18T16:56:04.497Z,97278.03
2023-01-18T17:00:25.137Z,97280.28
2023-01-18T17:04:36.636Z,97282.50
2023-01-18T17:08:49.287Z,97288.41
2023-01-18T17:13:01.310Z,97304.22
2023-01-18T17:17:13.108Z,97319.44
2023-01-18T17:21:24.605Z,97330.25
2023-01-18T17:25:36.595Z,97340.00
2023-01-18T17:29:48.044Z,97346.75
2023-01-18T17:34:00.406Z,97345.25
2023-01-18T17:38:22.835Z,97349.88
2023-01-18T17:42:35.481Z,97365.66
2023-01-18T17:46:47.030Z,97362.28
2023-01-18T17:50:58.786Z,97373.25
2023-01-18T17:55:13.032Z,97372.84
2023-01-18T17:59:24.669Z,97378.78
2023-01-18T18:03:41.155Z,97385.41
2023-01-18T18:07:52.661Z,97395.25
2023-01-18T18:12:05.163Z,97397.81
2023-01-18T18:16:18.716Z,97397.16
2023-01-18T18:20:31.953Z,97403.47
2023-01-18T18:24:43.379Z,97403.72
2023-01-18T18:28:54.839Z,97407.53
2023-01-18T18:33:06.343Z,97412.09
2023-01-18T18:37:19.685Z,97429.53
2023-01-18T18:41:31.356Z,97435.56
2023-01-18T18:45:44.874Z,97439.63
2023-01-18T18:49:56.545Z,97439.53
2023-01-18T18:54:10.763Z,97446.00
2023-01-18T18:58:22.245Z,97447.88
2023-01-18T19:02:34.507Z,97447.09
2023-01-18T19:06:46.081Z,97462.91
2023-01-18T19:10:57.608Z,97462.22
2023-01-18T19:15:09.393Z,97471.56
2023-01-18T19:19:21.343Z,97478.41
2023-01-18T19:23:33.070Z,97478.31
2023-01-18T19:27:44.650Z,97485.38
2023-01-18T19:31:56.116Z,97482.94
2023-01-18T19:36:13.737Z,97494.59
2023-01-18T19:40:50.825Z,97503.75
2023-01-18T20:11:15.835Z,97526.75
2023-01-18T20:15:27.333Z,97525.66
2023-01-18T20:19:38.837Z,97532.97
2023-01-18T20:23:50.337Z,97540.13
2023-01-18T20:28:01.940Z,97542.69
2023-01-18T20:32:16.707Z,97552.00
2023-01-18T20:36:29.654Z,97556.50
2023-01-18T20:47:11.325Z,97562.44
2023-01-18T20:51:22.904Z,97562.97
2023-01-18T21:19:46.037Z,97600.75
2023-01-18T21:23:57.860Z,97594.59
2023-01-18T21:28:09.368Z,97608.91
2023-01-18T21:32:22.676Z,97600.09
2023-01-18T21:36:34.179Z,97609.16
2023-01-18T21:40:45.761Z,97608.72
2023-01-18T21:45:15.901Z,97614.38
2023-01-18T21:54:18.157Z,97616.63
2023-01-18T21:58:48.376Z,97625.50
2023-01-18T22:02:59.918Z,97618.06
2023-01-18T22:07:11.525Z,97620.31
2023-01-18T22:11:23.141Z,97626.44
2023-01-18T22:15:34.989Z,97639.53
2023-01-18T22:19:46.794Z,97638.41
2023-01-18T22:23:58.781Z,97646.09
2023-01-18T22:28:10.766Z,97646.56
